Time;durP1;ratioP1;P1;durP2;ratioP2;P2;SDS_P1;SDS_P2;PMS_P1;PMS_P2;Temp;Humidity;BMP_temperature;BMP_pressure;BME280_temperature;BME280_humidity;BME280_pressure;Samples;Min_cycle;Max_cycle;Signal;HPM_P1;HPM_P2
2023/05/06 00:01:03;;;;;;;20.23;7.75;;;;;;;;;;5070999;28;20028;-60
2023/05/06 00:03:30;;;;;;;20.50;7.68;;;;;;;;;;5071593;28;20021;-60
2023/05/06 00:05:56;;;;;;;16.85;8.82;;;;;;;;;;5071634;28;20443;-59
2023/05/06 00:08:22;;;;;;;15.98;8.00;;;;;;;;;;5070112;28;20524;-58
2023/05/06 00:10:48;;;;;;;17.77;9.38;;;;;;;;;;5071395;28;20112;-59
2023/05/06 00:13:14;;;;;;;19.05;7.78;;;;;;;;;;5071306;28;20103;-60
2023/05/06 00:15:41;;;;;;;20.13;7.53;;;;;;;;;;5071246;28;20105;-59
2023/05/06 00:18:07;;;;;;;17.50;7.97;;;;;;;;;;5071400;28;20454;-60
2023/05/06 00:20:33;;;;;;;17.20;7.72;;;;;;;;;;5071093;28;20021;-60
2023/05/06 00:22:59;;;;;;;17.80;7.97;;;;;;;;;;5070320;28;20293;-60
2023/05/06 00:25:25;;;;;;;16.10;7.82;;;;;;;;;;5071134;28;20039;-60
2023/05/06 00:27:52;;;;;;;17.50;7.88;;;;;;;;;;5071138;28;20063;-60
2023/05/06 00:30:18;;;;;;;26.42;8.05;;;;;;;;;;5070854;28;20048;-58
2023/05/06 00:32:44;;;;;;;14.02;6.30;;;;;;;;;;5071007;28;20435;-60
2023/05/06 00:35:11;;;;;;;15.25;6.30;;;;;;;;;;5071482;28;20036;-60
2023/05/06 00:37:37;;;;;;;13.85;6.47;;;;;;;;;;5069687;28;20388;-61
2023/05/06 00:40:04;;;;;;;16.17;7.20;;;;;;;;;;5069876;28;20108;-60
2023/05/06 00:42:30;;;;;;;12.43;6.88;;;;;;;;;;5071110;28;20036;-61
2023/05/06 00:44:56;;;;;;;15.35;7.20;;;;;;;;;;5070891;28;20064;-59
2023/05/06 00:47:23;;;;;;;19.38;8.57;;;;;;;;;;5071474;28;20017;-59
2023/05/06 00:49:50;;;;;;;17.88;8.57;;;;;;;;;;5070869;28;20381;-59
2023/05/06 00:52:17;;;;;;;22.23;9.18;;;;;;;;;;5070809;28;20021;-60
2023/05/06 00:54:43;;;;;;;22.98;9.50;;;;;;;;;;5069704;28;20496;-61
2023/05/06 00:57:09;;;;;;;18.20;10.23;;;;;;;;;;5070948;28;20290;-60
2023/05/06 00:59:35;;;;;;;15.63;8.68;;;;;;;;;;5070813;28;20124;-59
2023/05/06 01:02:01;;;;;;;18.98;8.90;;;;;;;;;;5071063;28;20021;-60
2023/05/06 01:04:28;;;;;;;14.13;7.95;;;;;;;;;;5070696;28;20043;-60
2023/05/06 01:07:00;;;;;;;15.68;7.50;;;;;;;;;;5070740;28;20034;-60
2023/05/06 01:09:38;;;;;;;18.65;6.70;;;;;;;;;;5070950;28;20025;-61
2023/05/06 01:12:20;;;;;;;19.55;7.38;;;;;;;;;;5068204;28;20028;-60
2023/05/06 01:15:16;;;;;;;20.02;7.93;;;;;;;;;;5074289;28;20024;-60
2023/05/06 01:17:43;;;;;;;18.75;9.73;;;;;;;;;;5064887;28;20041;-59
2023/05/06 01:20:10;;;;;;;20.52;10.15;;;;;;;;;;5074716;28;20485;-60
2023/05/06 01:22:37;;;;;;;27.02;11.15;;;;;;;;;;5073197;28;20024;-59
2023/05/06 01:25:03;;;;;;;21.92;10.48;;;;;;;;;;5074448;28;20040;-60
2023/05/06 01:27:29;;;;;;;20.35;10.23;;;;;;;;;;5074112;28;20029;-59
2023/05/06 01:29:56;;;;;;;20.25;10.48;;;;;;;;;;5071411;28;20127;-60
2023/05/06 01:32:31;;;;;;;21.48;10.60;;;;;;;;;;5074132;28;20036;-60
2023/05/06 01:35:06;;;;;;;23.02;11.10;;;;;;;;;;5073958;28;20032;-60
2023/05/06 01:37:45;;;;;;;22.77;9.95;;;;;;;;;;5073810;28;20052;-59
2023/05/06 01:40:12;;;;;;;20.60;9.55;;;;;;;;;;5073945;28;20025;-63
2023/05/06 01:42:39;;;;;;;23.30;10.30;;;;;;;;;;5073979;28;20020;-59
2023/05/06 01:45:06;;;;;;;17.73;8.75;;;;;;;;;;5073808;28;20032;-59
2023/05/06 01:47:33;;;;;;;22.73;10.00;;;;;;;;;;5072553;28;20021;-59
2023/05/06 01:50:00;;;;;;;22.35;9.02;;;;;;;;;;5073747;28;20036;-59
2023/05/06 01:52:26;;;;;;;19.02;9.30;;;;;;;;;;5073552;28;20032;-59
2023/05/06 01:54:52;;;;;;;24.33;10.45;;;;;;;;;;5073664;28;20366;-59
2023/05/06 01:57:18;;;;;;;19.85;9.60;;;;;;;;;;5073689;28;20028;-60
2023/05/06 01:59:44;;;;;;;17.48;8.88;;;;;;;;;;5073529;28;20090;-60
2023/05/06 02:02:10;;;;;;;20.00;9.80;;;;;;;;;;5073269;28;20060;-60
2023/05/06 02:04:36;;;;;;;23.05;8.80;;;;;;;;;;5073725;28;20028;-59
2023/05/06 02:07:02;;;;;;;17.40;9.25;;;;;;;;;;5072369;28;20033;-59
2023/05/06 02:09:28;;;;;;;20.40;10.70;;;;;;;;;;5073341;28;20039;-59
2023/05/06 02:11:54;;;;;;;21.88;10.00;;;;;;;;;;5073360;28;20139;-59
2023/05/06 02:14:20;;;;;;;21.30;9.82;;;;;;;;;;5073171;28;20020;-59
2023/05/06 02:16:46;;;;;;;19.88;9.18;;;;;;;;;;5073335;28;20028;-59
2023/05/06 02:19:13;;;;;;;21.58;8.90;;;;;;;;;;5073056;28;20017;-59
2023/05/06 02:21:39;;;;;;;23.38;9.43;;;;;;;;;;5071672;28;20028;-60
2023/05/06 02:24:05;;;;;;;17.77;9.35;;;;;;;;;;5072830;28;20401;-59
2023/05/06 02:26:31;;;;;;;17.33;8.90;;;;;;;;;;5073124;28;20036;-60
2023/05/06 02:28:57;;;;;;;21.70;8.98;;;;;;;;;;5071519;28;20080;-60
2023/05/06 02:31:23;;;;;;;24.27;9.88;;;;;;;;;;5073056;28;20480;-59
2023/05/06 02:33:49;;;;;;;16.48;9.20;;;;;;;;;;5073267;28;20077;-58
2023/05/06 02:36:16;;;;;;;22.88;9.32;;;;;;;;;;5072943;28;20017;-59
2023/05/06 02:38:42;;;;;;;20.15;8.57;;;;;;;;;;5071710;28;20029;-59
2023/05/06 02:41:08;;;;;;;20.70;8.98;;;;;;;;;;5072878;28;20031;-60
2023/05/06 02:43:34;;;;;;;20.25;9.02;;;;;;;;;;5072666;28;20123;-59
2023/05/06 02:46:00;;;;;;;22.60;9.15;;;;;;;;;;5072495;28;20049;-59
2023/05/06 02:48:26;;;;;;;20.35;9.13;;;;;;;;;;5071458;28;20495;-59
2023/05/06 02:50:52;;;;;;;19.70;9.15;;;;;;;;;;5072608;28;20032;-60
2023/05/06 02:53:18;;;;;;;20.00;8.77;;;;;;;;;;5072673;28;20266;-59
2023/05/06 02:55:44;;;;;;;23.63;9.23;;;;;;;;;;5071257;28;20182;-59
2023/05/06 02:58:10;;;;;;;19.08;9.13;;;;;;;;;;5072389;28;20539;-60
2023/05/06 03:00:36;;;;;;;20.38;8.95;;;;;;;;;;5071039;28;20119;-59
2023/05/06 03:03:02;;;;;;;24.00;9.10;;;;;;;;;;5072442;28;20054;-60
2023/05/06 03:05:28;;;;;;;22.95;10.52;;;;;;;;;;5072360;28;20108;-58
2023/05/06 03:07:55;;;;;;;21.42;8.65;;;;;;;;;;5072218;28;20490;-60
2023/05/06 03:10:21;;;;;;;19.63;8.98;;;;;;;;;;5072206;28;20029;-59
2023/05/06 03:12:47;;;;;;;20.92;9.05;;;;;;;;;;5071034;28;20047;-59
2023/05/06 03:15:13;;;;;;;20.85;9.60;;;;;;;;;;5072350;28;20025;-59
2023/05/06 03:17:39;;;;;;;18.73;9.40;;;;;;;;;;5072367;28;20032;-59
2023/05/06 03:20:07;;;;;;;21.52;8.55;;;;;;;;;;5072002;28;20060;-59
2023/05/06 03:22:33;;;;;;;27.70;10.15;;;;;;;;;;5072301;28;20541;-59
2023/05/06 03:24:59;;;;;;;18.52;8.93;;;;;;;;;;5071944;28;20037;-59
2023/05/06 03:27:25;;;;;;;26.90;9.77;;;;;;;;;;5070467;28;20013;-59
2023/05/06 03:29:51;;;;;;;23.65;9.50;;;;;;;;;;5070249;28;20071;-59
2023/05/06 03:32:17;;;;;;;26.30;10.32;;;;;;;;;;5072096;28;20079;-59
2023/05/06 03:34:43;;;;;;;29.58;11.15;;;;;;;;;;5071858;28;20027;-59
2023/05/06 03:37:09;;;;;;;26.75;13.80;;;;;;;;;;5071204;28;20020;-60
2023/05/06 03:39:35;;;;;;;36.53;14.57;;;;;;;;;;5071649;28;20424;-58
2023/05/06 03:42:01;;;;;;;32.05;14.13;;;;;;;;;;5071490;28;20649;-59
2023/05/06 03:44:27;;;;;;;30.95;14.85;;;;;;;;;;5070455;28;20470;-58
2023/05/06 03:46:53;;;;;;;27.95;12.45;;;;;;;;;;5071456;28;20024;-60
2023/05/06 03:49:19;;;;;;;30.50;12.68;;;;;;;;;;5070122;28;20490;-59
2023/05/06 03:51:46;;;;;;;28.00;12.38;;;;;;;;;;5071457;28;20025;-59
2023/05/06 03:54:12;;;;;;;25.50;12.65;;;;;;;;;;5071397;28;20024;-60
2023/05/06 03:56:38;;;;;;;25.48;12.50;;;;;;;;;;5071502;28;20162;-60
2023/05/06 03:59:04;;;;;;;24.23;11.55;;;;;;;;;;5070313;28;20074;-59
2023/05/06 04:01:30;;;;;;;24.35;12.00;;;;;;;;;;5071464;28;20146;-60
2023/05/06 04:03:56;;;;;;;30.42;12.50;;;;;;;;;;5071317;28;20496;-60
2023/05/06 04:06:22;;;;;;;31.33;13.77;;;;;;;;;;5071500;28;20032;-60
2023/05/06 04:08:48;;;;;;;31.25;14.45;;;;;;;;;;5071346;28;20048;-59
2023/05/06 04:11:14;;;;;;;33.22;15.50;;;;;;;;;;5071269;28;20514;-59
2023/05/06 04:13:40;;;;;;;44.10;15.30;;;;;;;;;;5071342;28;20028;-60
2023/05/06 04:16:06;;;;;;;41.22;18.23;;;;;;;;;;5070240;28;20078;-58
2023/05/06 04:18:33;;;;;;;32.45;16.33;;;;;;;;;;5071302;28;20029;-59
2023/05/06 04:20:59;;;;;;;42.78;17.45;;;;;;;;;;5071164;28;20020;-58
2023/05/06 04:23:25;;;;;;;31.88;16.10;;;;;;;;;;5071198;28;20096;-58
2023/05/06 04:25:51;;;;;;;35.90;16.30;;;;;;;;;;5070956;28;20059;-59
2023/05/06 04:28:17;;;;;;;41.55;17.33;;;;;;;;;;5070934;28;20016;-59
2023/05/06 04:30:44;;;;;;;37.53;17.08;;;;;;;;;;5071313;28;20071;-59
2023/05/06 04:33:10;;;;;;;35.80;16.88;;;;;;;;;;5069959;28;20035;-58
2023/05/06 04:35:36;;;;;;;44.03;17.15;;;;;;;;;;5070826;28;20057;-59
2023/05/06 04:38:03;;;;;;;39.70;17.83;;;;;;;;;;5071124;28;20020;-58
2023/05/06 04:40:29;;;;;;;41.90;17.77;;;;;;;;;;5070939;28;20468;-58
2023/05/06 04:42:55;;;;;;;44.67;19.58;;;;;;;;;;5071105;28;20396;-59
2023/05/06 04:45:23;;;;;;;47.80;19.20;;;;;;;;;;5070822;28;20037;-59
2023/05/06 04:47:49;;;;;;;41.28;18.60;;;;;;;;;;5071867;28;20052;-59
2023/05/06 04:50:15;;;;;;;46.28;20.00;;;;;;;;;;5075332;28;20032;-60
2023/05/06 04:52:41;;;;;;;42.40;19.63;;;;;;;;;;5074917;28;20021;-59
2023/05/06 04:55:07;;;;;;;43.20;19.90;;;;;;;;;;5074793;28;20027;-60
2023/05/06 04:57:33;;;;;;;52.17;19.67;;;;;;;;;;5074794;28;20029;-59
2023/05/06 04:59:59;;;;;;;47.45;19.20;;;;;;;;;;5074833;28;20444;-59
2023/05/06 05:02:25;;;;;;;41.45;19.67;;;;;;;;;;5074841;28;20132;-59
2023/05/06 05:04:51;;;;;;;40.50;20.52;;;;;;;;;;5073462;28;20182;-59
2023/05/06 05:07:17;;;;;;;47.85;19.50;;;;;;;;;;5074527;28;20025;-58
2023/05/06 05:09:44;;;;;;;51.35;20.58;;;;;;;;;;5074617;28;20489;-59
2023/05/06 05:12:10;;;;;;;56.75;21.42;;;;;;;;;;5074552;28;20055;-59
2023/05/06 05:14:36;;;;;;;46.95;20.27;;;;;;;;;;5074662;28;20029;-59
2023/05/06 05:17:02;;;;;;;52.58;20.92;;;;;;;;;;5074505;28;20078;-59
2023/05/06 05:19:28;;;;;;;44.03;20.42;;;;;;;;;;5074420;28;20078;-58
2023/05/06 05:21:54;;;;;;;52.20;20.58;;;;;;;;;;5073315;28;20031;-58
2023/05/06 05:24:21;;;;;;;50.85;20.27;;;;;;;;;;5073979;28;20496;-59
2023/05/06 05:26:47;;;;;;;42.25;19.23;;;;;;;;;;5074146;28;20037;-59
2023/05/06 05:29:13;;;;;;;41.75;18.63;;;;;;;;;;5073975;28;20045;-59
2023/05/06 05:31:39;;;;;;;47.72;20.98;;;;;;;;;;5074204;28;20097;-61
2023/05/06 05:34:06;;;;;;;43.42;21.23;;;;;;;;;;5074113;28;20021;-59
2023/05/06 05:36:32;;;;;;;43.00;19.73;;;;;;;;;;5072685;28;20035;-59
2023/05/06 05:38:58;;;;;;;44.25;19.88;;;;;;;;;;5073954;28;20025;-60
2023/05/06 05:41:25;;;;;;;41.47;18.40;;;;;;;;;;5074104;28;20385;-59
2023/05/06 05:43:51;;;;;;;45.03;19.00;;;;;;;;;;5074086;28;20066;-59
2023/05/06 05:46:17;;;;;;;40.80;18.48;;;;;;;;;;5073595;28;20028;-59
2023/05/06 05:48:43;;;;;;;34.08;17.90;;;;;;;;;;5073863;28;20020;-58
2023/05/06 05:51:10;;;;;;;36.95;17.42;;;;;;;;;;5073855;28;20024;-59
2023/05/06 05:53:36;;;;;;;39.97;18.48;;;;;;;;;;5072631;28;20028;-60
2023/05/06 05:56:02;;;;;;;42.10;17.95;;;;;;;;;;5073737;28;20059;-59
2023/05/06 05:58:28;;;;;;;38.83;16.92;;;;;;;;;;5073186;28;20020;-59
2023/05/06 06:00:54;;;;;;;36.95;16.23;;;;;;;;;;5073531;28;20099;-60
2023/05/06 06:03:20;;;;;;;29.80;15.85;;;;;;;;;;5073837;28;20580;-61
2023/05/06 06:05:48;;;;;;;31.25;13.43;;;;;;;;;;5073592;28;20036;-60
2023/05/06 06:08:17;;;;;;;27.50;11.77;;;;;;;;;;5070800;28;20078;-60
2023/05/06 06:10:43;;;;;;;21.02;9.10;;;;;;;;;;5071759;28;20598;-59
2023/05/06 06:13:09;;;;;;;21.95;10.07;;;;;;;;;;5073344;28;20111;-59
2023/05/06 06:15:35;;;;;;;21.52;8.70;;;;;;;;;;5073373;28;20024;-62
2023/05/06 06:18:01;;;;;;;16.40;6.70;;;;;;;;;;5073370;28;20116;-60
2023/05/06 06:20:27;;;;;;;21.25;7.57;;;;;;;;;;5073134;28;20021;-59
2023/05/06 06:22:54;;;;;;;22.00;7.88;;;;;;;;;;5071020;28;20090;-61
2023/05/06 06:25:20;;;;;;;24.83;7.70;;;;;;;;;;5070527;28;20048;-60
2023/05/06 06:27:46;;;;;;;15.25;6.25;;;;;;;;;;5069192;28;20456;-59
2023/05/06 06:30:13;;;;;;;18.13;7.10;;;;;;;;;;5072078;28;20048;-58
2023/05/06 06:32:49;;;;;;;19.08;6.18;;;;;;;;;;5070581;28;20105;-60
2023/05/06 06:35:15;;;;;;;24.70;7.97;;;;;;;;;;5072533;28;20079;-60
2023/05/06 06:37:41;;;;;;;17.75;6.75;;;;;;;;;;5071108;28;20024;-58
2023/05/06 06:40:09;;;;;;;23.05;6.18;;;;;;;;;;5072043;28;20093;-61
2023/05/06 06:42:35;;;;;;;14.50;6.25;;;;;;;;;;5072987;28;20055;-60
2023/05/06 06:45:01;;;;;;;18.27;6.35;;;;;;;;;;5070508;28;20036;-59
2023/05/06 06:47:27;;;;;;;13.50;5.68;;;;;;;;;;5072979;28;20103;-61
2023/05/06 06:49:53;;;;;;;17.15;5.90;;;;;;;;;;5072848;28;20150;-59
2023/05/06 06:52:19;;;;;;;21.92;6.20;;;;;;;;;;5071702;28;20854;-60
2023/05/06 06:54:45;;;;;;;17.08;6.00;;;;;;;;;;5071514;28;20554;-60
2023/05/06 06:57:11;;;;;;;18.40;5.90;;;;;;;;;;5071911;28;20040;-59
2023/05/06 06:59:37;;;;;;;19.60;5.43;;;;;;;;;;5072546;28;20025;-59
2023/05/06 07:02:03;;;;;;;12.32;4.53;;;;;;;;;;5070811;28;20024;-59
2023/05/06 07:04:29;;;;;;;19.50;4.88;;;;;;;;;;5072403;28;20028;-59
2023/05/06 07:06:55;;;;;;;19.48;5.55;;;;;;;;;;5072620;28;20111;-60
2023/05/06 07:09:21;;;;;;;18.33;5.55;;;;;;;;;;5071069;28;20056;-60
2023/05/06 07:11:48;;;;;;;15.25;5.43;;;;;;;;;;5070372;28;20087;-60
2023/05/06 07:14:14;;;;;;;21.35;5.07;;;;;;;;;;5071492;28;20111;-60
2023/05/06 07:16:40;;;;;;;23.90;4.80;;;;;;;;;;5071183;28;20028;-59
2023/05/06 07:19:06;;;;;;;16.48;4.15;;;;;;;;;;5053045;28;20056;-59
2023/05/06 07:21:32;;;;;;;20.77;4.05;;;;;;;;;;5072106;28;20020;-60
2023/05/06 07:23:58;;;;;;;23.77;4.55;;;;;;;;;;5069475;28;20032;-60
2023/05/06 07:26:25;;;;;;;16.80;3.92;;;;;;;;;;5071456;28;20113;-60
2023/05/06 07:28:51;;;;;;;19.20;3.85;;;;;;;;;;5070732;28;20044;-61
2023/05/06 07:31:19;;;;;;;22.63;4.50;;;;;;;;;;5071776;28;20036;-60
2023/05/06 07:33:46;;;;;;;13.90;3.28;;;;;;;;;;5072001;28;20013;-61
2023/05/06 07:36:12;;;;;;;14.38;3.60;;;;;;;;;;5071968;28;20025;-59
2023/05/06 07:38:38;;;;;;;16.33;4.70;;;;;;;;;;5070572;28;20028;-61
2023/05/06 07:41:05;;;;;;;16.55;3.70;;;;;;;;;;5071229;28;20415;-58
2023/05/06 07:43:31;;;;;;;25.30;4.65;;;;;;;;;;5070031;28;20033;-60
2023/05/06 07:46:01;;;;;;;13.30;3.70;;;;;;;;;;5071663;28;20500;-61
2023/05/06 07:48:28;;;;;;;17.15;4.18;;;;;;;;;;5071790;28;20134;-59
2023/05/06 07:50:54;;;;;;;18.33;4.47;;;;;;;;;;5071698;28;20029;-59
2023/05/06 07:53:20;;;;;;;19.15;3.78;;;;;;;;;;5069836;28;20032;-59
2023/05/06 07:55:46;;;;;;;15.18;3.75;;;;;;;;;;5071506;28;20028;-61
2023/05/06 07:58:12;;;;;;;14.75;4.03;;;;;;;;;;5063640;28;20025;-59
2023/05/06 08:00:38;;;;;;;16.15;3.88;;;;;;;;;;5071435;28;20027;-60
2023/05/06 08:03:04;;;;;;;15.95;4.25;;;;;;;;;;5069812;28;20055;-60
2023/05/06 08:05:30;;;;;;;17.02;3.95;;;;;;;;;;5068726;28;20071;-59
2023/05/06 08:07:56;;;;;;;19.52;4.22;;;;;;;;;;5070966;28;20016;-59
2023/05/06 08:10:23;;;;;;;13.80;3.75;;;;;;;;;;5070445;28;20098;-60
2023/05/06 08:12:49;;;;;;;16.52;3.58;;;;;;;;;;5071082;28;20021;-60
2023/05/06 08:15:15;;;;;;;23.67;4.22;;;;;;;;;;5069618;28;20108;-60
2023/05/06 08:17:41;;;;;;;21.52;4.63;;;;;;;;;;5069373;28;20290;-60
2023/05/06 08:20:07;;;;;;;18.65;3.65;;;;;;;;;;5068436;28;20493;-59
2023/05/06 08:22:33;;;;;;;15.98;4.07;;;;;;;;;;5069463;28;20052;-60
2023/05/06 08:25:00;;;;;;;17.25;5.47;;;;;;;;;;5071104;28;20060;-60
2023/05/06 08:27:26;;;;;;;17.15;3.63;;;;;;;;;;5070134;28;20021;-59
2023/05/06 08:29:52;;;;;;;14.45;4.45;;;;;;;;;;5071042;28;20068;-60
2023/05/06 08:32:18;;;;;;;12.57;4.00;;;;;;;;;;5069740;28;20024;-59
2023/05/06 08:34:44;;;;;;;19.85;3.88;;;;;;;;;;5070029;28;20048;-59
2023/05/06 08:37:10;;;;;;;14.98;3.65;;;;;;;;;;5069489;28;20044;-60
2023/05/06 08:39:38;;;;;;;16.88;4.38;;;;;;;;;;5069628;28;20020;-59
2023/05/06 08:42:04;;;;;;;18.90;3.65;;;;;;;;;;5070849;28;20111;-59
2023/05/06 08:44:30;;;;;;;14.60;4.00;;;;;;;;;;5071831;28;20028;-60
2023/05/06 08:46:56;;;;;;;16.48;4.15;;;;;;;;;;5066546;28;20032;-59
2023/05/06 08:49:22;;;;;;;22.90;3.75;;;;;;;;;;5057535;28;20158;-59
2023/05/06 08:51:51;;;;;;;15.90;4.43;;;;;;;;;;5073069;28;20060;-60
2023/05/06 08:54:17;;;;;;;17.60;3.78;;;;;;;;;;5069691;28;20405;-59
2023/05/06 08:56:47;;;;;;;14.00;3.67;;;;;;;;;;5070828;28;20457;-59
2023/05/06 08:59:14;;;;;;;13.27;3.75;;;;;;;;;;5070763;28;20028;-59
2023/05/06 09:01:40;;;;;;;17.95;3.53;;;;;;;;;;5074253;28;20035;-59
2023/05/06 09:04:06;;;;;;;20.75;4.22;;;;;;;;;;5072189;28;20142;-60
2023/05/06 09:06:33;;;;;;;17.75;4.60;;;;;;;;;;5073504;28;20028;-60
2023/05/06 09:08:59;;;;;;;16.92;4.70;;;;;;;;;;5069718;28;20050;-60
2023/05/06 09:11:28;;;;;;;17.00;3.83;;;;;;;;;;5068800;28;20424;-60
2023/05/06 09:14:11;;;;;;;11.25;3.15;;;;;;;;;;5070539;28;20017;-60
2023/05/06 09:16:37;;;;;;;17.25;3.75;;;;;;;;;;5069361;28;20024;-61
2023/05/06 09:19:06;;;;;;;16.33;3.42;;;;;;;;;;5069883;28;20016;-60
2023/05/06 09:21:33;;;;;;;12.75;3.33;;;;;;;;;;5068167;28;20032;-60
2023/05/06 09:23:59;;;;;;;22.42;4.70;;;;;;;;;;5070449;28;20024;-58
2023/05/06 09:26:27;;;;;;;19.95;3.85;;;;;;;;;;5068036;28;20067;-61
2023/05/06 09:28:53;;;;;;;14.23;3.72;;;;;;;;;;5070059;28;20044;-61
2023/05/06 09:31:19;;;;;;;18.80;3.70;;;;;;;;;;5068742;28;20020;-59
2023/05/06 09:33:45;;;;;;;18.88;4.07;;;;;;;;;;5068167;28;20025;-60
2023/05/06 09:36:12;;;;;;;16.55;4.40;;;;;;;;;;5070270;28;20039;-60
2023/05/06 09:38:41;;;;;;;13.88;3.90;;;;;;;;;;5071935;28;20484;-61
2023/05/06 09:41:07;;;;;;;16.27;4.05;;;;;;;;;;5073566;28;20074;-60
2023/05/06 09:43:36;;;;;;;16.02;4.13;;;;;;;;;;5073150;28;20111;-61
2023/05/06 09:46:04;;;;;;;18.10;4.07;;;;;;;;;;5072738;28;20396;-61
2023/05/06 09:48:31;;;;;;;16.95;4.35;;;;;;;;;;5064818;28;20025;-60
2023/05/06 09:50:58;;;;;;;11.23;3.67;;;;;;;;;;5069005;28;20169;-60
2023/05/06 09:53:25;;;;;;;16.98;3.63;;;;;;;;;;5074631;28;20662;-61
2023/05/06 09:55:52;;;;;;;15.38;4.10;;;;;;;;;;5073714;28;20075;-59
2023/05/06 09:58:21;;;;;;;15.98;4.55;;;;;;;;;;5069491;28;20075;-59
2023/05/06 10:00:47;;;;;;;19.98;3.70;;;;;;;;;;5073565;28;20366;-59
2023/05/06 10:03:14;;;;;;;13.20;3.45;;;;;;;;;;5069670;28;20027;-58
2023/05/06 10:05:41;;;;;;;15.68;3.90;;;;;;;;;;5063174;28;20174;-59
2023/05/06 10:08:08;;;;;;;13.88;3.67;;;;;;;;;;5071429;28;20554;-59
2023/05/06 10:10:36;;;;;;;13.40;3.10;;;;;;;;;;5073561;28;20033;-58
2023/05/06 10:13:03;;;;;;;13.07;3.15;;;;;;;;;;5073399;28;20020;-58
2023/05/06 10:15:29;;;;;;;10.13;2.90;;;;;;;;;;5074667;28;20308;-60
2023/05/06 10:17:56;;;;;;;9.55;3.10;;;;;;;;;;5072826;28;20036;-59
2023/05/06 10:20:23;;;;;;;15.30;3.70;;;;;;;;;;5073182;28;20038;-59
2023/05/06 10:22:59;;;;;;;12.75;3.95;;;;;;;;;;5072293;28;20054;-59
2023/05/06 10:25:35;;;;;;;14.43;3.35;;;;;;;;;;5072865;28;20039;-59
2023/05/06 10:28:04;;;;;;;14.60;3.60;;;;;;;;;;5073051;28;20078;-58
2023/05/06 10:30:32;;;;;;;13.05;3.70;;;;;;;;;;5073459;28;20131;-59
2023/05/06 10:32:59;;;;;;;13.38;3.13;;;;;;;;;;5072171;28;20122;-58
2023/05/06 10:35:32;;;;;;;9.55;3.17;;;;;;;;;;5063375;28;20087;-59
2023/05/06 10:37:59;;;;;;;9.57;3.10;;;;;;;;;;5071205;28;20079;-59
2023/05/06 10:40:25;;;;;;;10.48;3.20;;;;;;;;;;5087145;28;20029;-59
2023/05/06 10:42:51;;;;;;;13.60;3.08;;;;;;;;;;5071627;28;20025;-59
2023/05/06 10:45:17;;;;;;;14.65;3.22;;;;;;;;;;5071039;28;20226;-58
2023/05/06 10:47:56;;;;;;;13.30;3.20;;;;;;;;;;5071858;28;20044;-59
2023/05/06 10:50:25;;;;;;;9.70;2.50;;;;;;;;;;5071742;28;20493;-60
2023/05/06 10:52:55;;;;;;;11.30;3.05;;;;;;;;;;5068790;28;20032;-60
2023/05/06 10:55:25;;;;;;;10.63;2.83;;;;;;;;;;5071061;28;20062;-60
2023/05/06 10:57:54;;;;;;;13.27;2.97;;;;;;;;;;5071544;28;20024;-59
2023/05/06 11:00:20;;;;;;;6.15;2.58;;;;;;;;;;5070392;28;20422;-60
2023/05/06 11:02:50;;;;;;;8.10;2.60;;;;;;;;;;5071533;28;20039;-60
2023/05/06 11:05:16;;;;;;;7.43;2.30;;;;;;;;;;5071394;28;20100;-60
2023/05/06 11:07:42;;;;;;;5.35;2.78;;;;;;;;;;5072385;28;20115;-60
2023/05/06 11:10:10;;;;;;;8.13;2.92;;;;;;;;;;5069317;28;20029;-59
2023/05/06 11:12:43;;;;;;;7.50;3.15;;;;;;;;;;5068974;28;20052;-60
2023/05/06 11:15:39;;;;;;;8.48;2.78;;;;;;;;;;5064107;28;20034;-62
2023/05/06 11:18:23;;;;;;;7.85;2.53;;;;;;;;;;5059801;28;20040;-58
2023/05/06 11:20:50;;;;;;;9.23;3.08;;;;;;;;;;5070002;28;20493;-58
2023/05/06 11:23:18;;;;;;;6.32;2.60;;;;;;;;;;5067413;28;20021;-58
2023/05/06 11:25:46;;;;;;;9.23;2.80;;;;;;;;;;5071904;28;20067;-59
2023/05/06 11:28:13;;;;;;;7.28;2.40;;;;;;;;;;5067509;28;20059;-58
2023/05/06 11:30:41;;;;;;;9.40;2.83;;;;;;;;;;5061699;28;20048;-59
2023/05/06 11:33:07;;;;;;;9.50;2.97;;;;;;;;;;5072050;28;20020;-58
2023/05/06 11:35:37;;;;;;;9.93;2.78;;;;;;;;;;5070654;28;20029;-58
2023/05/06 11:38:04;;;;;;;5.47;2.78;;;;;;;;;;5071576;28;20016;-58
2023/05/06 11:40:31;;;;;;;8.88;3.15;;;;;;;;;;5069718;28;20078;-60
2023/05/06 11:43:13;;;;;;;11.07;3.92;;;;;;;;;;5071696;28;20385;-61
2023/05/06 11:45:40;;;;;;;8.25;2.95;;;;;;;;;;5072329;28;20048;-61
2023/05/06 11:48:06;;;;;;;5.53;2.70;;;;;;;;;;5071368;28;20024;-60
2023/05/06 11:50:32;;;;;;;10.23;3.05;;;;;;;;;;5069535;28;20100;-59
2023/05/06 11:52:58;;;;;;;7.13;2.70;;;;;;;;;;5071418;28;20048;-60
2023/05/06 11:55:24;;;;;;;7.90;2.88;;;;;;;;;;5071355;28;20381;-60
2023/05/06 11:57:52;;;;;;;6.30;2.53;;;;;;;;;;5070020;28;20017;-60
2023/05/06 12:00:18;;;;;;;5.40;2.53;;;;;;;;;;5070225;28;20111;-60
2023/05/06 12:02:44;;;;;;;8.65;2.90;;;;;;;;;;5051458;28;20086;-60
2023/05/06 12:05:11;;;;;;;8.93;2.78;;;;;;;;;;5065339;28;20103;-60
2023/05/06 12:07:37;;;;;;;8.98;3.15;;;;;;;;;;5070085;28;20037;-61
2023/05/06 12:10:03;;;;;;;7.43;3.15;;;;;;;;;;5071146;28;20017;-59
2023/05/06 12:12:31;;;;;;;6.38;3.50;;;;;;;;;;5070054;28;20024;-59
2023/05/06 12:14:57;;;;;;;10.35;3.80;;;;;;;;;;5069912;28;20025;-60
2023/05/06 12:17:24;;;;;;;6.18;2.53;;;;;;;;;;5071347;28;20408;-60
2023/05/06 12:19:50;;;;;;;8.63;2.70;;;;;;;;;;5071187;28;20021;-59
2023/05/06 12:22:25;;;;;;;8.27;3.10;;;;;;;;;;5071197;28;20063;-60
2023/05/06 12:24:51;;;;;;;10.60;3.33;;;;;;;;;;5069716;28;20075;-61
2023/05/06 12:27:34;;;;;;;8.25;2.83;;;;;;;;;;5070455;28;20051;-62
2023/05/06 12:30:01;;;;;;;14.50;3.05;;;;;;;;;;5070912;28;20127;-63
2023/05/06 12:32:27;;;;;;;10.45;3.03;;;;;;;;;;5069118;28;20033;-63
2023/05/06 12:34:54;;;;;;;7.93;2.47;;;;;;;;;;5086461;28;20537;-63
2023/05/06 12:37:38;;;;;;;10.35;2.55;;;;;;;;;;5070762;28;20122;-63
2023/05/06 12:40:06;;;;;;;11.07;2.70;;;;;;;;;;5061648;28;20102;-65
2023/05/06 12:42:32;;;;;;;8.55;2.50;;;;;;;;;;5072020;28;20032;-66
2023/05/06 12:45:12;;;;;;;7.25;2.50;;;;;;;;;;5070601;28;20039;-65
2023/05/06 12:47:38;;;;;;;9.30;2.70;;;;;;;;;;5069809;28;20039;-63
2023/05/06 12:50:04;;;;;;;6.93;2.30;;;;;;;;;;5070761;28;20031;-63
2023/05/06 12:52:30;;;;;;;10.48;2.47;;;;;;;;;;5068778;28;20028;-61
2023/05/06 12:54:56;;;;;;;7.70;3.20;;;;;;;;;;5068079;28;20393;-61
2023/05/06 12:57:22;;;;;;;12.50;2.72;;;;;;;;;;5069058;28;20031;-61
2023/05/06 12:59:49;;;;;;;12.40;2.88;;;;;;;;;;5066782;28;20029;-61
2023/05/06 13:02:15;;;;;;;7.88;2.72;;;;;;;;;;5069692;28;20048;-61
2023/05/06 13:04:41;;;;;;;9.30;3.05;;;;;;;;;;5070745;28;20060;-60
2023/05/06 13:07:07;;;;;;;7.78;2.13;;;;;;;;;;5071009;28;20394;-62
2023/05/06 13:09:33;;;;;;;11.25;2.70;;;;;;;;;;5072248;28;20024;-61
2023/05/06 13:11:59;;;;;;;7.10;2.70;;;;;;;;;;5074659;28;20028;-61
2023/05/06 13:14:26;;;;;;;10.65;3.70;;;;;;;;;;5074653;28;20036;-61
2023/05/06 13:16:52;;;;;;;9.23;3.53;;;;;;;;;;5074461;28;20541;-62
2023/05/06 13:19:18;;;;;;;10.38;4.38;;;;;;;;;;5073701;28;20028;-61
2023/05/06 13:21:45;;;;;;;18.20;5.82;;;;;;;;;;5074502;28;20032;-61
2023/05/06 13:24:11;;;;;;;17.45;7.47;;;;;;;;;;5073098;28;20013;-61
2023/05/06 13:26:37;;;;;;;17.85;6.80;;;;;;;;;;5074372;28;20098;-61
2023/05/06 13:29:03;;;;;;;18.73;5.57;;;;;;;;;;5074154;28;20051;-61
2023/05/06 13:31:30;;;;;;;21.58;6.28;;;;;;;;;;5074156;28;20020;-61
2023/05/06 13:33:56;;;;;;;16.23;5.30;;;;;;;;;;5074585;28;20032;-61
2023/05/06 13:36:22;;;;;;;15.52;5.47;;;;;;;;;;5072924;28;20043;-62
2023/05/06 13:38:48;;;;;;;18.85;5.22;;;;;;;;;;5074221;28;20020;-62
2023/05/06 13:41:15;;;;;;;15.57;5.10;;;;;;;;;;5074502;28;20560;-62
2023/05/06 13:43:41;;;;;;;22.88;6.35;;;;;;;;;;5074014;28;20025;-61
2023/05/06 13:46:10;;;;;;;12.80;5.72;;;;;;;;;;5073826;28;20090;-62
2023/05/06 13:48:36;;;;;;;17.20;5.25;;;;;;;;;;5073937;28;20024;-62
2023/05/06 13:51:02;;;;;;;18.45;5.68;;;;;;;;;;5073866;28;20038;-62
2023/05/06 13:53:28;;;;;;;11.23;4.95;;;;;;;;;;5072805;28;20051;-62
2023/05/06 13:55:54;;;;;;;18.63;5.45;;;;;;;;;;5073575;28;20509;-61
2023/05/06 13:58:20;;;;;;;18.02;5.40;;;;;;;;;;5073699;28;20028;-61
2023/05/06 14:00:47;;;;;;;18.35;5.32;;;;;;;;;;5073546;28;20025;-59
2023/05/06 14:03:13;;;;;;;11.73;4.25;;;;;;;;;;5072548;28;20084;-59
2023/05/06 14:05:40;;;;;;;15.52;4.88;;;;;;;;;;5073745;28;20036;-59
2023/05/06 14:08:07;;;;;;;24.02;5.40;;;;;;;;;;5073657;28;20047;-59
2023/05/06 14:10:33;;;;;;;12.80;4.30;;;;;;;;;;5073552;28;20542;-59
2023/05/06 14:12:59;;;;;;;13.30;4.82;;;;;;;;;;5073507;28;20465;-58
2023/05/06 14:15:25;;;;;;;13.88;4.60;;;;;;;;;;5072181;28;20025;-61
2023/05/06 14:17:51;;;;;;;12.27;4.07;;;;;;;;;;5073333;28;20028;-58
2023/05/06 14:20:17;;;;;;;15.18;4.82;;;;;;;;;;5071706;28;20024;-58
2023/05/06 14:22:43;;;;;;;15.63;4.55;;;;;;;;;;5073222;28;20111;-59
2023/05/06 14:25:09;;;;;;;12.73;4.55;;;;;;;;;;5073313;28;20467;-58
2023/05/06 14:27:35;;;;;;;16.92;5.03;;;;;;;;;;5071700;28;20504;-59